sensor_id;sensor_type;location;lat;lon;timestamp;P1;durP1;ratioP1;P2;durP2;ratioP2
82012;SDS011;71535;53.354;15.030;2023-08-21T00:00:12;6.25;;;3.20;;
82012;SDS011;71535;53.354;15.030;2023-08-21T00:02:38;5.85;;;3.15;;
82012;SDS011;71535;53.354;15.030;2023-08-21T00:05:07;6.03;;;3.42;;
82012;SDS011;71535;53.354;15.030;2023-08-21T00:07:34;7.13;;;2.78;;
82012;SDS011;71535;53.354;15.030;2023-08-21T00:10:00;6.72;;;3.42;;
82012;SDS011;71535;53.354;15.030;2023-08-21T00:12:27;6.30;;;3.10;;
82012;SDS011;71535;53.354;15.030;2023-08-21T00:14:54;6.65;;;3.53;;
82012;SDS011;71535;53.354;15.030;2023-08-21T00:17:20;7.65;;;3.47;;
82012;SDS011;71535;53.354;15.030;2023-08-21T00:19:47;6.50;;;3.80;;
82012;SDS011;71535;53.354;15.030;2023-08-21T00:22:15;6.85;;;3.83;;
82012;SDS011;71535;53.354;15.030;2023-08-21T00:24:41;6.97;;;3.58;;
82012;SDS011;71535;53.354;15.030;2023-08-21T00:27:07;9.52;;;4.85;;
82012;SDS011;71535;53.354;15.030;2023-08-21T00:29:34;9.32;;;4.90;;
82012;SDS011;71535;53.354;15.030;2023-08-21T00:32:01;9.40;;;5.00;;
82012;SDS011;71535;53.354;15.030;2023-08-21T00:34:27;7.68;;;3.95;;
82012;SDS011;71535;53.354;15.030;2023-08-21T00:36:54;8.50;;;3.75;;
82012;SDS011;71535;53.354;15.030;2023-08-21T00:39:22;8.50;;;3.80;;
82012;SDS011;71535;53.354;15.030;2023-08-21T00:41:48;8.00;;;4.03;;
82012;SDS011;71535;53.354;15.030;2023-08-21T00:44:15;7.93;;;3.80;;
82012;SDS011;71535;53.354;15.030;2023-08-21T00:46:41;7.30;;;3.60;;
82012;SDS011;71535;53.354;15.030;2023-08-21T00:49:08;6.28;;;3.78;;
82012;SDS011;71535;53.354;15.030;2023-08-21T00:51:34;7.07;;;3.38;;
82012;SDS011;71535;53.354;15.030;2023-08-21T00:54:01;6.70;;;3.80;;
82012;SDS011;71535;53.354;15.030;2023-08-21T00:56:29;6.15;;;3.55;;
82012;SDS011;71535;53.354;15.030;2023-08-21T00:58:56;8.10;;;3.35;;
82012;SDS011;71535;53.354;15.030;2023-08-21T01:01:23;6.45;;;3.20;;
82012;SDS011;71535;53.354;15.030;2023-08-21T01:03:50;6.18;;;3.17;;
82012;SDS011;71535;53.354;15.030;2023-08-21T01:06:16;6.75;;;3.30;;
82012;SDS011;71535;53.354;15.030;2023-08-21T01:08:46;5.97;;;3.08;;
82012;SDS011;71535;53.354;15.030;2023-08-21T01:11:17;7.95;;;3.17;;
82012;SDS011;71535;53.354;15.030;2023-08-21T01:13:50;6.55;;;3.05;;
82012;SDS011;71535;53.354;15.030;2023-08-21T01:16:20;6.38;;;3.22;;
82012;SDS011;71535;53.354;15.030;2023-08-21T01:18:47;7.05;;;3.33;;
82012;SDS011;71535;53.354;15.030;2023-08-21T01:21:14;6.65;;;3.67;;
82012;SDS011;71535;53.354;15.030;2023-08-21T01:23:43;9.43;;;4.95;;
82012;SDS011;71535;53.354;15.030;2023-08-21T01:26:09;8.95;;;3.47;;
82012;SDS011;71535;53.354;15.030;2023-08-21T01:28:36;7.45;;;3.80;;
82012;SDS011;71535;53.354;15.030;2023-08-21T01:31:05;6.88;;;3.35;;
82012;SDS011;71535;53.354;15.030;2023-08-21T01:33:34;8.70;;;3.83;;
82012;SDS011;71535;53.354;15.030;2023-08-21T01:36:02;6.95;;;3.95;;
82012;SDS011;71535;53.354;15.030;2023-08-21T01:38:30;6.80;;;3.92;;
82012;SDS011;71535;53.354;15.030;2023-08-21T01:40:58;7.80;;;3.63;;
82012;SDS011;71535;53.354;15.030;2023-08-21T01:43:25;6.28;;;3.20;;
82012;SDS011;71535;53.354;15.030;2023-08-21T01:45:51;5.85;;;3.63;;
82012;SDS011;71535;53.354;15.030;2023-08-21T01:48:18;5.55;;;2.92;;
82012;SDS011;71535;53.354;15.030;2023-08-21T01:50:44;6.30;;;3.47;;
82012;SDS011;71535;53.354;15.030;2023-08-21T01:53:11;7.40;;;3.17;;
82012;SDS011;71535;53.354;15.030;2023-08-21T01:55:37;5.50;;;2.58;;
82012;SDS011;71535;53.354;15.030;2023-08-21T01:58:05;5.32;;;2.58;;
82012;SDS011;71535;53.354;15.030;2023-08-21T02:00:31;5.97;;;2.90;;
82012;SDS011;71535;53.354;15.030;2023-08-21T02:02:58;6.82;;;2.40;;
82012;SDS011;71535;53.354;15.030;2023-08-21T02:05:24;5.68;;;2.90;;
82012;SDS011;71535;53.354;15.030;2023-08-21T02:07:51;5.93;;;3.03;;
82012;SDS011;71535;53.354;15.030;2023-08-21T02:10:17;5.68;;;2.97;;
82012;SDS011;71535;53.354;15.030;2023-08-21T02:12:44;5.47;;;2.85;;
82012;SDS011;71535;53.354;15.030;2023-08-21T02:15:12;8.82;;;3.97;;
82012;SDS011;71535;53.354;15.030;2023-08-21T02:17:39;10.52;;;4.78;;
82012;SDS011;71535;53.354;15.030;2023-08-21T02:20:08;8.98;;;3.60;;
82012;SDS011;71535;53.354;15.030;2023-08-21T02:22:35;6.70;;;3.67;;
82012;SDS011;71535;53.354;15.030;2023-08-21T02:25:01;8.00;;;3.40;;
82012;SDS011;71535;53.354;15.030;2023-08-21T02:27:28;5.72;;;2.70;;
82012;SDS011;71535;53.354;15.030;2023-08-21T02:29:54;6.07;;;2.80;;
82012;SDS011;71535;53.354;15.030;2023-08-21T02:32:22;8.45;;;2.80;;
82012;SDS011;71535;53.354;15.030;2023-08-21T02:34:49;5.60;;;2.63;;
82012;SDS011;71535;53.354;15.030;2023-08-21T02:37:15;6.18;;;3.13;;
82012;SDS011;71535;53.354;15.030;2023-08-21T02:39:42;7.20;;;3.20;;
82012;SDS011;71535;53.354;15.030;2023-08-21T02:42:08;5.82;;;2.72;;
82012;SDS011;71535;53.354;15.030;2023-08-21T02:44:35;5.65;;;2.92;;
82012;SDS011;71535;53.354;15.030;2023-08-21T02:47:01;5.68;;;2.78;;
82012;SDS011;71535;53.354;15.030;2023-08-21T02:49:29;7.50;;;3.05;;
82012;SDS011;71535;53.354;15.030;2023-08-21T02:51:56;6.15;;;3.38;;
82012;SDS011;71535;53.354;15.030;2023-08-21T02:54:22;5.65;;;3.00;;
82012;SDS011;71535;53.354;15.030;2023-08-21T02:56:49;8.00;;;3.03;;
82012;SDS011;71535;53.354;15.030;2023-08-21T02:59:15;6.43;;;3.33;;
82012;SDS011;71535;53.354;15.030;2023-08-21T03:01:42;6.30;;;3.30;;
82012;SDS011;71535;53.354;15.030;2023-08-21T03:04:08;5.25;;;2.78;;
82012;SDS011;71535;53.354;15.030;2023-08-21T03:06:36;6.00;;;3.10;;
82012;SDS011;71535;53.354;15.030;2023-08-21T03:09:03;6.97;;;2.85;;
82012;SDS011;71535;53.354;15.030;2023-08-21T03:11:29;6.97;;;3.20;;
82012;SDS011;71535;53.354;15.030;2023-08-21T03:13:55;6.07;;;3.20;;
82012;SDS011;71535;53.354;15.030;2023-08-21T03:16:22;6.95;;;3.78;;
82012;SDS011;71535;53.354;15.030;2023-08-21T03:18:55;7.68;;;3.63;;
82012;SDS011;71535;53.354;15.030;2023-08-21T03:21:22;7.78;;;4.25;;
82012;SDS011;71535;53.354;15.030;2023-08-21T03:23:51;7.13;;;3.47;;
82012;SDS011;71535;53.354;15.030;2023-08-21T03:26:18;7.43;;;3.53;;
82012;SDS011;71535;53.354;15.030;2023-08-21T03:28:44;7.25;;;3.40;;
82012;SDS011;71535;53.354;15.030;2023-08-21T03:31:11;6.72;;;3.20;;
82012;SDS011;71535;53.354;15.030;2023-08-21T03:33:37;7.45;;;2.97;;
82012;SDS011;71535;53.354;15.030;2023-08-21T03:36:04;5.75;;;2.95;;
82012;SDS011;71535;53.354;15.030;2023-08-21T03:38:30;6.22;;;3.67;;
82012;SDS011;71535;53.354;15.030;2023-08-21T03:40:58;5.70;;;2.85;;
82012;SDS011;71535;53.354;15.030;2023-08-21T03:43:25;6.20;;;2.97;;
82012;SDS011;71535;53.354;15.030;2023-08-21T03:45:51;5.32;;;3.15;;
82012;SDS011;71535;53.354;15.030;2023-08-21T03:48:18;6.05;;;3.45;;
82012;SDS011;71535;53.354;15.030;2023-08-21T03:50:44;7.10;;;3.50;;
82012;SDS011;71535;53.354;15.030;2023-08-21T03:53:11;8.75;;;3.92;;
82012;SDS011;71535;53.354;15.030;2023-08-21T03:55:37;6.78;;;3.03;;
82012;SDS011;71535;53.354;15.030;2023-08-21T03:58:05;7.78;;;4.05;;
82012;SDS011;71535;53.354;15.030;2023-08-21T04:00:32;7.60;;;4.10;;
82012;SDS011;71535;53.354;15.030;2023-08-21T04:02:58;9.55;;;4.78;;
82012;SDS011;71535;53.354;15.030;2023-08-21T04:05:25;7.95;;;4.18;;
82012;SDS011;71535;53.354;15.030;2023-08-21T04:07:51;6.97;;;3.80;;
82012;SDS011;71535;53.354;15.030;2023-08-21T04:10:18;6.93;;;3.85;;
82012;SDS011;71535;53.354;15.030;2023-08-21T04:12:44;8.68;;;4.65;;
82012;SDS011;71535;53.354;15.030;2023-08-21T04:15:12;14.52;;;8.05;;
82012;SDS011;71535;53.354;15.030;2023-08-21T04:17:39;22.45;;;12.00;;
82012;SDS011;71535;53.354;15.030;2023-08-21T04:20:06;10.48;;;5.32;;
82012;SDS011;71535;53.354;15.030;2023-08-21T04:22:32;8.65;;;4.40;;
82012;SDS011;71535;53.354;15.030;2023-08-21T04:24:59;9.95;;;4.53;;
82012;SDS011;71535;53.354;15.030;2023-08-21T04:27:26;8.80;;;4.25;;
82012;SDS011;71535;53.354;15.030;2023-08-21T04:29:53;7.95;;;4.40;;
82012;SDS011;71535;53.354;15.030;2023-08-21T04:32:21;8.13;;;4.60;;
82012;SDS011;71535;53.354;15.030;2023-08-21T04:34:47;9.10;;;4.60;;
82012;SDS011;71535;53.354;15.030;2023-08-21T04:37:14;9.30;;;4.22;;
82012;SDS011;71535;53.354;15.030;2023-08-21T04:39:41;9.25;;;4.55;;
82012;SDS011;71535;53.354;15.030;2023-08-21T04:42:07;8.32;;;4.38;;
82012;SDS011;71535;53.354;15.030;2023-08-21T04:44:34;9.05;;;5.28;;
82012;SDS011;71535;53.354;15.030;2023-08-21T04:49:43;11.30;;;6.50;;
82012;SDS011;71535;53.354;15.030;2023-08-21T04:52:09;13.02;;;6.53;;
82012;SDS011;71535;53.354;15.030;2023-08-21T04:54:36;15.65;;;7.75;;
82012;SDS011;71535;53.354;15.030;2023-08-21T04:57:02;11.90;;;6.72;;
82012;SDS011;71535;53.354;15.030;2023-08-21T04:59:30;14.38;;;7.20;;
82012;SDS011;71535;53.354;15.030;2023-08-21T05:01:56;13.68;;;7.80;;
82012;SDS011;71535;53.354;15.030;2023-08-21T05:04:23;14.52;;;7.35;;
82012;SDS011;71535;53.354;15.030;2023-08-21T05:06:50;18.25;;;8.18;;
82012;SDS011;71535;53.354;15.030;2023-08-21T05:09:17;16.13;;;8.73;;
82012;SDS011;71535;53.354;15.030;2023-08-21T05:11:43;14.93;;;7.65;;
82012;SDS011;71535;53.354;15.030;2023-08-21T05:14:10;15.25;;;7.97;;
82012;SDS011;71535;53.354;15.030;2023-08-21T05:16:36;15.32;;;8.10;;
82012;SDS011;71535;53.354;15.030;2023-08-21T05:19:03;14.73;;;7.95;;
82012;SDS011;71535;53.354;15.030;2023-08-21T05:21:29;16.45;;;8.88;;
82012;SDS011;71535;53.354;15.030;2023-08-21T05:23:57;15.63;;;7.90;;
82012;SDS011;71535;53.354;15.030;2023-08-21T05:26:24;16.30;;;8.48;;
82012;SDS011;71535;53.354;15.030;2023-08-21T05:28:50;14.48;;;8.75;;
82012;SDS011;71535;53.354;15.030;2023-08-21T05:31:17;14.88;;;9.32;;
82012;SDS011;71535;53.354;15.030;2023-08-21T05:33:43;18.30;;;9.65;;
82012;SDS011;71535;53.354;15.030;2023-08-21T05:36:10;14.98;;;8.95;;
82012;SDS011;71535;53.354;15.030;2023-08-21T05:38:36;18.05;;;10.27;;
82012;SDS011;71535;53.354;15.030;2023-08-21T05:41:04;18.00;;;9.88;;
82012;SDS011;71535;53.354;15.030;2023-08-21T05:43:31;17.92;;;9.95;;
82012;SDS011;71535;53.354;15.030;2023-08-21T05:45:58;17.27;;;9.77;;
82012;SDS011;71535;53.354;15.030;2023-08-21T05:48:24;17.15;;;10.55;;
82012;SDS011;71535;53.354;15.030;2023-08-21T05:50:51;16.27;;;9.63;;
82012;SDS011;71535;53.354;15.030;2023-08-21T05:53:18;15.00;;;9.40;;
82012;SDS011;71535;53.354;15.030;2023-08-21T05:55:44;17.42;;;9.20;;
82012;SDS011;71535;53.354;15.030;2023-08-21T05:58:12;16.55;;;9.02;;
82012;SDS011;71535;53.354;15.030;2023-08-21T06:00:39;16.65;;;8.95;;
82012;SDS011;71535;53.354;15.030;2023-08-21T06:03:05;15.50;;;8.40;;
82012;SDS011;71535;53.354;15.030;2023-08-21T06:05:32;18.63;;;9.32;;
82012;SDS011;71535;53.354;15.030;2023-08-21T06:07:58;15.95;;;9.07;;
82012;SDS011;71535;53.354;15.030;2023-08-21T06:10:25;16.15;;;9.00;;
82012;SDS011;71535;53.354;15.030;2023-08-21T06:12:51;15.98;;;8.63;;
82012;SDS011;71535;53.354;15.030;2023-08-21T06:15:19;16.83;;;10.23;;
82012;SDS011;71535;53.354;15.030;2023-08-21T06:17:46;16.73;;;8.48;;
82012;SDS011;71535;53.354;15.030;2023-08-21T06:20:12;14.70;;;9.50;;
82012;SDS011;71535;53.354;15.030;2023-08-21T06:22:39;17.85;;;9.10;;
82012;SDS011;71535;53.354;15.030;2023-08-21T06:25:06;18.05;;;9.38;;
82012;SDS011;71535;53.354;15.030;2023-08-21T06:27:32;17.20;;;8.35;;
82012;SDS011;71535;53.354;15.030;2023-08-21T06:29:59;12.73;;;7.57;;
82012;SDS011;71535;53.354;15.030;2023-08-21T06:32:27;14.15;;;6.47;;
82012;SDS011;71535;53.354;15.030;2023-08-21T06:34:54;12.23;;;5.88;;
82012;SDS011;71535;53.354;15.030;2023-08-21T06:37:20;11.43;;;6.32;;
82012;SDS011;71535;53.354;15.030;2023-08-21T06:39:47;15.20;;;6.72;;
82012;SDS011;71535;53.354;15.030;2023-08-21T06:42:13;12.32;;;5.15;;
82012;SDS011;71535;53.354;15.030;2023-08-21T06:44:40;11.00;;;5.28;;
82012;SDS011;71535;53.354;15.030;2023-08-21T06:47:06;12.10;;;6.43;;
82012;SDS011;71535;53.354;15.030;2023-08-21T06:49:34;12.07;;;5.22;;
82012;SDS011;71535;53.354;15.030;2023-08-21T06:52:01;12.43;;;4.82;;
82012;SDS011;71535;53.354;15.030;2023-08-21T06:54:28;7.43;;;3.67;;
82012;SDS011;71535;53.354;15.030;2023-08-21T06:56:55;10.07;;;3.80;;
82012;SDS011;71535;53.354;15.030;2023-08-21T06:59:21;8.55;;;3.60;;
82012;SDS011;71535;53.354;15.030;2023-08-21T07:01:48;10.43;;;2.83;;
82012;SDS011;71535;53.354;15.030;2023-08-21T07:04:15;6.75;;;3.28;;
82012;SDS011;71535;53.354;15.030;2023-08-21T07:06:43;6.45;;;2.95;;
82012;SDS011;71535;53.354;15.030;2023-08-21T07:09:09;8.63;;;3.17;;
82012;SDS011;71535;53.354;15.030;2023-08-21T07:11:36;8.85;;;2.92;;
82012;SDS011;71535;53.354;15.030;2023-08-21T07:14:02;6.70;;;2.95;;
82012;SDS011;71535;53.354;15.030;2023-08-21T07:16:29;8.23;;;3.15;;
82012;SDS011;71535;53.354;15.030;2023-08-21T07:18:55;8.93;;;2.60;;
82012;SDS011;71535;53.354;15.030;2023-08-21T07:21:22;5.43;;;1.88;;
82012;SDS011;71535;53.354;15.030;2023-08-21T07:23:50;7.85;;;2.15;;
82012;SDS011;71535;53.354;15.030;2023-08-21T07:26:16;5.32;;;1.92;;
82012;SDS011;71535;53.354;15.030;2023-08-21T07:28:43;7.63;;;2.20;;
82012;SDS011;71535;53.354;15.030;2023-08-21T07:31:10;7.53;;;1.85;;
82012;SDS011;71535;53.354;15.030;2023-08-21T07:33:36;7.18;;;2.03;;
82012;SDS011;71535;53.354;15.030;2023-08-21T07:36:04;7.10;;;1.73;;
82012;SDS011;71535;53.354;15.030;2023-08-21T07:38:31;9.85;;;1.80;;
82012;SDS011;71535;53.354;15.030;2023-08-21T07:41:05;7.35;;;1.75;;
82012;SDS011;71535;53.354;15.030;2023-08-21T07:43:32;7.35;;;2.10;;
82012;SDS011;71535;53.354;15.030;2023-08-21T07:46:01;5.53;;;1.65;;
82012;SDS011;71535;53.354;15.030;2023-08-21T07:48:28;7.07;;;1.92;;
82012;SDS011;71535;53.354;15.030;2023-08-21T07:50:54;11.27;;;1.63;;
82012;SDS011;71535;53.354;15.030;2023-08-21T07:53:21;4.20;;;1.20;;
82012;SDS011;71535;53.354;15.030;2023-08-21T07:55:48;7.10;;;1.60;;
82012;SDS011;71535;53.354;15.030;2023-08-21T07:58:15;4.88;;;1.25;;
82012;SDS011;71535;53.354;15.030;2023-08-21T08:00:42;5.88;;;1.70;;
82012;SDS011;71535;53.354;15.030;2023-08-21T08:03:09;5.72;;;1.70;;
82012;SDS011;71535;53.354;15.030;2023-08-21T08:05:36;4.75;;;1.70;;
82012;SDS011;71535;53.354;15.030;2023-08-21T08:08:03;7.03;;;1.77;;
82012;SDS011;71535;53.354;15.030;2023-08-21T08:10:29;5.88;;;2.00;;
82012;SDS011;71535;53.354;15.030;2023-08-21T08:12:56;6.47;;;1.92;;
82012;SDS011;71535;53.354;15.030;2023-08-21T08:15:24;7.22;;;2.47;;
82012;SDS011;71535;53.354;15.030;2023-08-21T08:17:50;6.32;;;2.40;;
82012;SDS011;71535;53.354;15.030;2023-08-21T08:20:17;5.20;;;1.80;;
82012;SDS011;71535;53.354;15.030;2023-08-21T08:22:43;7.28;;;2.00;;
82012;SDS011;71535;53.354;15.030;2023-08-21T08:25:10;6.18;;;1.70;;
82012;SDS011;71535;53.354;15.030;2023-08-21T08:27:37;6.80;;;2.17;;
82012;SDS011;71535;53.354;15.030;2023-08-21T08:30:04;4.90;;;2.03;;
82012;SDS011;71535;53.354;15.030;2023-08-21T08:32:32;8.48;;;1.95;;
82012;SDS011;71535;53.354;15.030;2023-08-21T08:34:58;7.45;;;2.10;;
82012;SDS011;71535;53.354;15.030;2023-08-21T08:37:25;4.13;;;1.60;;
82012;SDS011;71535;53.354;15.030;2023-08-21T08:39:52;5.90;;;2.00;;
82012;SDS011;71535;53.354;15.030;2023-08-21T08:42:18;4.25;;;1.73;;
82012;SDS011;71535;53.354;15.030;2023-08-21T08:44:45;5.00;;;1.75;;
82012;SDS011;71535;53.354;15.030;2023-08-21T08:47:13;4.97;;;2.00;;
82012;SDS011;71535;53.354;15.030;2023-08-21T08:49:42;5.35;;;1.63;;
82012;SDS011;71535;53.354;15.030;2023-08-21T08:52:09;4.85;;;1.65;;
82012;SDS011;71535;53.354;15.030;2023-08-21T08:54:36;4.05;;;1.13;;
82012;SDS011;71535;53.354;15.030;2023-08-21T08:57:03;4.88;;;1.80;;
82012;SDS011;71535;53.354;15.030;2023-08-21T08:59:30;6.60;;;1.70;;
82012;SDS011;71535;53.354;15.030;2023-08-21T09:01:57;4.78;;;1.60;;
82012;SDS011;71535;53.354;15.030;2023-08-21T09:04:23;7.57;;;1.38;;
82012;SDS011;71535;53.354;15.030;2023-08-21T09:06:51;4.57;;;1.60;;
82012;SDS011;71535;53.354;15.030;2023-08-21T09:09:18;5.15;;;1.60;;
82012;SDS011;71535;53.354;15.030;2023-08-21T09:11:45;3.63;;;1.17;;
82012;SDS011;71535;53.354;15.030;2023-08-21T09:14:13;3.80;;;1.20;;
82012;SDS011;71535;53.354;15.030;2023-08-21T09:16:57;5.95;;;1.25;;
82012;SDS011;71535;53.354;15.030;2023-08-21T09:19:24;4.60;;;1.50;;
82012;SDS011;71535;53.354;15.030;2023-08-21T09:21:52;6.80;;;1.65;;
82012;SDS011;71535;53.354;15.030;2023-08-21T09:24:19;7.50;;;1.88;;
82012;SDS011;71535;53.354;15.030;2023-08-21T09:26:45;6.38;;;2.25;;
82012;SDS011;71535;53.354;15.030;2023-08-21T09:29:12;5.95;;;1.80;;
82012;SDS011;71535;53.354;15.030;2023-08-21T09:31:38;5.20;;;2.00;;
82012;SDS011;71535;53.354;15.030;2023-08-21T09:34:05;8.40;;;2.15;;
82012;SDS011;71535;53.354;15.030;2023-08-21T09:36:32;5.65;;;2.10;;
82012;SDS011;71535;53.354;15.030;2023-08-21T09:39:00;6.80;;;1.30;;
82012;SDS011;71535;53.354;15.030;2023-08-21T09:41:27;5.22;;;1.60;;
82012;SDS011;71535;53.354;15.030;2023-08-21T09:43:54;5.82;;;1.73;;
82012;SDS011;71535;53.354;15.030;2023-08-21T09:46:25;5.10;;;1.50;;
82012;SDS011;71535;53.354;15.030;2023-08-21T09:48:52;5.05;;;1.48;;
82012;SDS011;71535;53.354;15.030;2023-08-21T09:51:19;6.05;;;1.60;;
82012;SDS011;71535;53.354;15.030;2023-08-21T09:53:45;3.72;;;1.15;;
82012;SDS011;71535;53.354;15.030;2023-08-21T09:56:14;4.28;;;0.70;;
82012;SDS011;71535;53.354;15.030;2023-08-21T09:58:40;5.88;;;1.48;;
82012;SDS011;71535;53.354;15.030;2023-08-21T10:01:07;5.00;;;1.25;;
82012;SDS011;71535;53.354;15.030;2023-08-21T10:03:39;5.55;;;1.90;;
82012;SDS011;71535;53.354;15.030;2023-08-21T10:06:06;5.80;;;1.77;;
82012;SDS011;71535;53.354;15.030;2023-08-21T10:08:36;5.95;;;1.55;;
82012;SDS011;71535;53.354;15.030;2023-08-21T10:11:04;6.63;;;2.25;;
82012;SDS011;71535;53.354;15.030;2023-08-21T10:13:33;5.60;;;1.75;;
82012;SDS011;71535;53.354;15.030;2023-08-21T10:16:00;4.45;;;1.52;;
82012;SDS011;71535;53.354;15.030;2023-08-21T10:18:29;4.43;;;1.90;;
82012;SDS011;71535;53.354;15.030;2023-08-21T10:20:56;7.68;;;1.67;;
82012;SDS011;71535;53.354;15.030;2023-08-21T10:23:27;4.10;;;1.73;;
82012;SDS011;71535;53.354;15.030;2023-08-21T10:25:54;4.93;;;1.73;;
82012;SDS011;71535;53.354;15.030;2023-08-21T10:28:21;7.45;;;2.03;;
82012;SDS011;71535;53.354;15.030;2023-08-21T10:30:49;4.65;;;1.48;;
82012;SDS011;71535;53.354;15.030;2023-08-21T10:33:16;6.00;;;1.80;;
82012;SDS011;71535;53.354;15.030;2023-08-21T10:35:44;4.68;;;1.75;;
82012;SDS011;71535;53.354;15.030;2023-08-21T10:38:11;3.65;;;1.42;;
82012;SDS011;71535;53.354;15.030;2023-08-21T10:40:38;5.50;;;1.70;;
82012;SDS011;71535;53.354;15.030;2023-08-21T10:43:14;6.00;;;2.20;;
82012;SDS011;71535;53.354;15.030;2023-08-21T10:46:02;4.32;;;1.85;;
82012;SDS011;71535;53.354;15.030;2023-08-21T10:48:28;6.75;;;1.60;;
82012;SDS011;71535;53.354;15.030;2023-08-21T10:50:55;6.65;;;2.22;;
82012;SDS011;71535;53.354;15.030;2023-08-21T10:53:22;4.85;;;2.20;;
82012;SDS011;71535;53.354;15.030;2023-08-21T10:55:52;6.68;;;1.92;;
82012;SDS011;71535;53.354;15.030;2023-08-21T10:58:19;10.23;;;2.33;;
82012;SDS011;71535;53.354;15.030;2023-08-21T11:00:45;6.18;;;2.17;;
82012;SDS011;71535;53.354;15.030;2023-08-21T11:03:13;5.25;;;2.60;;
82012;SDS011;71535;53.354;15.030;2023-08-21T11:05:41;5.10;;;2.65;;
82012;SDS011;71535;53.354;15.030;2023-08-21T11:08:07;5.68;;;2.35;;
82012;SDS011;71535;53.354;15.030;2023-08-21T11:10:34;6.10;;;2.25;;
82012;SDS011;71535;53.354;15.030;2023-08-21T11:13:00;5.60;;;2.60;;
82012;SDS011;71535;53.354;15.030;2023-08-21T11:15:28;5.40;;;2.35;;
82012;SDS011;71535;53.354;15.030;2023-08-21T11:17:55;6.38;;;2.20;;
82012;SDS011;71535;53.354;15.030;2023-08-21T11:20:26;5.70;;;2.55;;
82012;SDS011;71535;53.354;15.030;2023-08-21T11:22:55;9.88;;;2.20;;
82012;SDS011;71535;53.354;15.030;2023-08-21T11:25:22;10.20;;;3.40;;
82012;SDS011;71535;53.354;15.030;2023-08-21T11:27:48;7.32;;;2.85;;
82012;SDS011;71535;53.354;15.030;2023-08-21T11:30:15;9.70;;;3.20;;
82012;SDS011;71535;53.354;15.030;2023-08-21T11:32:43;9.25;;;3.00;;
82012;SDS011;71535;53.354;15.030;2023-08-21T11:35:09;6.30;;;3.80;;
82012;SDS011;71535;53.354;15.030;2023-08-21T11:37:43;7.20;;;3.67;;
82012;SDS011;71535;53.354;15.030;2023-08-21T11:40:10;5.53;;;3.42;;
82012;SDS011;71535;53.354;15.030;2023-08-21T11:42:36;8.73;;;3.00;;
82012;SDS011;71535;53.354;15.030;2023-08-21T11:45:03;6.20;;;3.05;;
82012;SDS011;71535;53.354;15.030;2023-08-21T11:47:30;8.05;;;2.95;;
82012;SDS011;71535;53.354;15.030;2023-08-21T11:50:01;6.57;;;4.00;;
82012;SDS011;71535;53.354;15.030;2023-08-21T11:52:31;5.22;;;2.90;;
82012;SDS011;71535;53.354;15.030;2023-08-21T11:54:59;5.57;;;3.13;;
82012;SDS011;71535;53.354;15.030;2023-08-21T11:57:25;5.88;;;3.00;;
82012;SDS011;71535;53.354;15.030;2023-08-21T11:59:53;4.82;;;2.70;;
82012;SDS011;71535;53.354;15.030;2023-08-21T12:02:21;8.82;;;2.83;;
82012;SDS011;71535;53.354;15.030;2023-08-21T12:04:51;5.20;;;2.53;;
82012;SDS011;71535;53.354;15.030;2023-08-21T12:07:18;7.68;;;2.60;;
82012;SDS011;71535;53.354;15.030;2023-08-21T12:09:46;4.30;;;2.20;;
82012;SDS011;71535;53.354;15.030;2023-08-21T12:12:14;6.40;;;2.92;;
82012;SDS011;71535;53.354;15.030;2023-08-21T12:14:41;7.68;;;3.00;;
82012;SDS011;71535;53.354;15.030;2023-08-21T12:17:07;4.57;;;2.42;;
82012;SDS011;71535;53.354;15.030;2023-08-21T12:19:34;4.10;;;1.77;;
82012;SDS011;71535;53.354;15.030;2023-08-21T12:22:00;4.97;;;2.20;;
82012;SDS011;71535;53.354;15.030;2023-08-21T12:24:27;4.07;;;2.25;;
82012;SDS011;71535;53.354;15.030;2023-08-21T12:26:53;4.38;;;1.55;;
82012;SDS011;71535;53.354;15.030;2023-08-21T12:29:22;5.93;;;3.78;;
82012;SDS011;71535;53.354;15.030;2023-08-21T12:31:48;4.53;;;2.85;;
82012;SDS011;71535;53.354;15.030;2023-08-21T12:34:15;4.20;;;1.63;;
82012;SDS011;71535;53.354;15.030;2023-08-21T12:36:41;3.90;;;2.50;;
82012;SDS011;71535;53.354;15.030;2023-08-21T12:39:08;5.45;;;1.65;;
82012;SDS011;71535;53.354;15.030;2023-08-21T12:41:35;4.63;;;2.72;;
82012;SDS011;71535;53.354;15.030;2023-08-21T12:44:01;5.25;;;2.03;;
82012;SDS011;71535;53.354;15.030;2023-08-21T12:46:30;5.13;;;1.65;;
82012;SDS011;71535;53.354;15.030;2023-08-21T12:48:56;4.10;;;2.58;;
82012;SDS011;71535;53.354;15.030;2023-08-21T12:51:24;4.90;;;3.00;;
82012;SDS011;71535;53.354;15.030;2023-08-21T12:53:51;7.30;;;2.45;;
82012;SDS011;71535;53.354;15.030;2023-08-21T12:56:17;5.78;;;2.58;;
82012;SDS011;71535;53.354;15.030;2023-08-21T12:58:45;3.33;;;1.77;;
82012;SDS011;71535;53.354;15.030;2023-08-21T13:01:11;5.30;;;2.63;;
82012;SDS011;71535;53.354;15.030;2023-08-21T13:03:39;5.65;;;1.90;;
82012;SDS011;71535;53.354;15.030;2023-08-21T13:06:09;5.68;;;2.55;;
82012;SDS011;71535;53.354;15.030;2023-08-21T13:08:36;6.25;;;2.75;;
82012;SDS011;71535;53.354;15.030;2023-08-21T13:11:02;5.32;;;1.83;;
82012;SDS011;71535;53.354;15.030;2023-08-21T13:13:30;5.93;;;2.25;;
82012;SDS011;71535;53.354;15.030;2023-08-21T13:15:57;5.75;;;3.58;;
82012;SDS011;71535;53.354;15.030;2023-08-21T13:18:25;4.07;;;2.20;;
82012;SDS011;71535;53.354;15.030;2023-08-21T13:20:53;7.20;;;2.63;;
82012;SDS011;71535;53.354;15.030;2023-08-21T13:23:19;3.88;;;3.28;;
82012;SDS011;71535;53.354;15.030;2023-08-21T13:25:46;6.50;;;4.57;;
82012;SDS011;71535;53.354;15.030;2023-08-21T13:28:12;4.25;;;1.80;;
82012;SDS011;71535;53.354;15.030;2023-08-21T13:30:39;4.60;;;1.50;;
82012;SDS011;71535;53.354;15.030;2023-08-21T13:33:05;4.80;;;1.65;;
82012;SDS011;71535;53.354;15.030;2023-08-21T13:35:33;3.85;;;1.13;;
82012;SDS011;71535;53.354;15.030;2023-08-21T13:38:01;5.03;;;1.63;;
82012;SDS011;71535;53.354;15.030;2023-08-21T13:40:28;5.38;;;1.88;;
82012;SDS011;71535;53.354;15.030;2023-08-21T13:42:55;4.30;;;1.85;;
82012;SDS011;71535;53.354;15.030;2023-08-21T13:45:23;5.72;;;2.17;;
82012;SDS011;71535;53.354;15.030;2023-08-21T13:47:49;6.18;;;1.83;;
82012;SDS011;71535;53.354;15.030;2023-08-21T13:50:16;4.30;;;1.80;;
82012;SDS011;71535;53.354;15.030;2023-08-21T13:52:43;4.47;;;2.15;;
82012;SDS011;71535;53.354;15.030;2023-08-21T13:55:11;5.82;;;1.60;;
82012;SDS011;71535;53.354;15.030;2023-08-21T13:57:37;5.93;;;1.50;;
82012;SDS011;71535;53.354;15.030;2023-08-21T14:00:04;5.90;;;2.63;;
82012;SDS011;71535;53.354;15.030;2023-08-21T14:02:32;10.32;;;2.70;;
82012;SDS011;71535;53.354;15.030;2023-08-21T14:04:59;3.63;;;2.25;;
82012;SDS011;71535;53.354;15.030;2023-08-21T14:07:25;5.53;;;3.42;;
82012;SDS011;71535;53.354;15.030;2023-08-21T14:09:52;4.50;;;3.40;;
82012;SDS011;71535;53.354;15.030;2023-08-21T14:12:20;3.60;;;1.88;;
82012;SDS011;71535;53.354;15.030;2023-08-21T14:14:46;4.10;;;2.28;;
82012;SDS011;71535;53.354;15.030;2023-08-21T14:17:13;5.18;;;2.20;;
82012;SDS011;71535;53.354;15.030;2023-08-21T14:19:39;3.90;;;1.90;;
82012;SDS011;71535;53.354;15.030;2023-08-21T14:22:06;4.18;;;1.50;;
82012;SDS011;71535;53.354;15.030;2023-08-21T14:24:33;4.57;;;1.70;;
82012;SDS011;71535;53.354;15.030;2023-08-21T14:26:59;4.13;;;1.30;;
82012;SDS011;71535;53.354;15.030;2023-08-21T14:29:27;6.68;;;1.52;;
82012;SDS011;71535;53.354;15.030;2023-08-21T14:31:54;5.95;;;1.95;;
82012;SDS011;71535;53.354;15.030;2023-08-21T14:34:22;5.32;;;2.20;;